sensor_id;sensor_type;location;lat;lon;timestamp;temperature;humidity
54260;DHT22;40172;53.022;7.012;2022-11-14T00:00:13;6.80;99.90
54260;DHT22;40172;53.022;7.012;2022-11-14T00:02:38;6.70;99.90
54260;DHT22;40172;53.022;7.012;2022-11-14T00:05:05;6.80;99.90
54260;DHT22;40172;53.022;7.012;2022-11-14T00:07:33;6.70;99.90
54260;DHT22;40172;53.022;7.012;2022-11-14T00:09:59;6.80;99.90
54260;DHT22;40172;53.022;7.012;2022-11-14T00:12:25;6.80;99.90
54260;DHT22;40172;53.022;7.012;2022-11-14T00:14:50;6.80;99.90
54260;DHT22;40172;53.022;7.012;2022-11-14T00:17:16;6.80;99.90
54260;DHT22;40172;53.022;7.012;2022-11-14T00:19:42;6.70;99.90
54260;DHT22;40172;53.022;7.012;2022-11-14T00:22:08;6.70;99.90
54260;DHT22;40172;53.022;7.012;2022-11-14T00:24:34;6.80;99.90
54260;DHT22;40172;53.022;7.012;2022-11-14T00:26:59;6.80;99.90
54260;DHT22;40172;53.022;7.012;2022-11-14T00:29:25;6.70;99.90
54260;DHT22;40172;53.022;7.012;2022-11-14T00:31:51;6.70;99.90
54260;DHT22;40172;53.022;7.012;2022-11-14T00:34:16;6.70;99.90
54260;DHT22;40172;53.022;7.012;2022-11-14T00:36:42;6.60;99.90
54260;DHT22;40172;53.022;7.012;2022-11-14T00:39:12;6.60;99.90
54260;DHT22;40172;53.022;7.012;2022-11-14T00:41:38;6.70;99.90
54260;DHT22;40172;53.022;7.012;2022-11-14T00:44:04;6.60;99.90
54260;DHT22;40172;53.022;7.012;2022-11-14T00:46:30;6.60;99.90
54260;DHT22;40172;53.022;7.012;2022-11-14T00:48:55;6.60;99.90
54260;DHT22;40172;53.022;7.012;2022-11-14T00:51:21;6.60;99.90
54260;DHT22;40172;53.022;7.012;2022-11-14T00:53:46;6.40;99.90
54260;DHT22;40172;53.022;7.012;2022-11-14T00:56:12;6.40;99.90
54260;DHT22;40172;53.022;7.012;2022-11-14T00:58:38;6.50;99.90
54260;DHT22;40172;53.022;7.012;2022-11-14T01:01:03;6.40;99.90
54260;DHT22;40172;53.022;7.012;2022-11-14T01:03:29;6.30;99.90
54260;DHT22;40172;53.022;7.012;2022-11-14T01:05:54;6.20;99.90
54260;DHT22;40172;53.022;7.012;2022-11-14T01:08:21;6.20;99.90
54260;DHT22;40172;53.022;7.012;2022-11-14T01:10:49;6.10;99.90
54260;DHT22;40172;53.022;7.012;2022-11-14T01:13:16;6.10;99.90
54260;DHT22;40172;53.022;7.012;2022-11-14T01:15:46;6.00;99.90
54260;DHT22;40172;53.022;7.012;2022-11-14T01:18:19;5.90;99.90
54260;DHT22;40172;53.022;7.012;2022-11-14T01:20:46;5.80;99.90
54260;DHT22;40172;53.022;7.012;2022-11-14T01:23:14;5.90;99.90
54260;DHT22;40172;53.022;7.012;2022-11-14T01:25:41;5.80;99.90
54260;DHT22;40172;53.022;7.012;2022-11-14T01:28:08;5.80;99.90
54260;DHT22;40172;53.022;7.012;2022-11-14T01:30:35;5.80;99.90
54260;DHT22;40172;53.022;7.012;2022-11-14T01:33:01;5.80;99.90
54260;DHT22;40172;53.022;7.012;2022-11-14T01:35:27;5.70;99.90
54260;DHT22;40172;53.022;7.012;2022-11-14T01:37:52;5.70;99.90
54260;DHT22;40172;53.022;7.012;2022-11-14T01:40:18;5.70;99.90
54260;DHT22;40172;53.022;7.012;2022-11-14T01:46:02;5.60;99.90
54260;DHT22;40172;53.022;7.012;2022-11-14T01:51:25;5.60;99.90
54260;DHT22;40172;53.022;7.012;2022-11-14T01:53:55;5.60;99.90
54260;DHT22;40172;53.022;7.012;2022-11-14T01:56:28;5.60;99.90
54260;DHT22;40172;53.022;7.012;2022-11-14T01:59:12;5.40;99.90
54260;DHT22;40172;53.022;7.012;2022-11-14T02:01:48;5.40;99.90
54260;DHT22;40172;53.022;7.012;2022-11-14T02:04:17;5.20;99.90
54260;DHT22;40172;53.022;7.012;2022-11-14T02:06:45;5.30;99.90
54260;DHT22;40172;53.022;7.012;2022-11-14T02:09:12;5.20;99.90
54260;DHT22;40172;53.022;7.012;2022-11-14T02:11:41;5.20;99.90
54260;DHT22;40172;53.022;7.012;2022-11-14T02:14:07;5.30;99.90
54260;DHT22;40172;53.022;7.012;2022-11-14T02:16:33;5.30;99.90
54260;DHT22;40172;53.022;7.012;2022-11-14T02:18:59;5.20;99.90
54260;DHT22;40172;53.022;7.012;2022-11-14T02:21:25;5.30;99.90
54260;DHT22;40172;53.022;7.012;2022-11-14T02:23:50;5.30;99.90
54260;DHT22;40172;53.022;7.012;2022-11-14T02:26:20;5.40;99.90
54260;DHT22;40172;53.022;7.012;2022-11-14T02:28:46;5.50;99.90
54260;DHT22;40172;53.022;7.012;2022-11-14T02:31:13;5.60;99.90
54260;DHT22;40172;53.022;7.012;2022-11-14T02:33:39;5.70;99.90
54260;DHT22;40172;53.022;7.012;2022-11-14T02:36:05;5.70;99.90
54260;DHT22;40172;53.022;7.012;2022-11-14T02:38:30;5.70;99.90
54260;DHT22;40172;53.022;7.012;2022-11-14T02:40:58;5.90;99.90
54260;DHT22;40172;53.022;7.012;2022-11-14T02:43:24;5.90;99.90
54260;DHT22;40172;53.022;7.012;2022-11-14T02:45:50;6.00;99.90
54260;DHT22;40172;53.022;7.012;2022-11-14T02:48:15;6.00;99.90
54260;DHT22;40172;53.022;7.012;2022-11-14T02:50:42;6.00;99.90
54260;DHT22;40172;53.022;7.012;2022-11-14T02:53:07;6.10;99.90
54260;DHT22;40172;53.022;7.012;2022-11-14T02:55:33;6.20;99.90
54260;DHT22;40172;53.022;7.012;2022-11-14T02:57:58;6.20;99.90
54260;DHT22;40172;53.022;7.012;2022-11-14T03:00:24;6.30;99.90
54260;DHT22;40172;53.022;7.012;2022-11-14T03:02:52;6.20;99.90
54260;DHT22;40172;53.022;7.012;2022-11-14T03:05:17;6.30;99.90
54260;DHT22;40172;53.022;7.012;2022-11-14T03:07:43;6.30;99.90
54260;DHT22;40172;53.022;7.012;2022-11-14T03:10:09;6.30;99.90
54260;DHT22;40172;53.022;7.012;2022-11-14T03:12:35;6.30;99.90
54260;DHT22;40172;53.022;7.012;2022-11-14T03:15:01;6.40;99.90
54260;DHT22;40172;53.022;7.012;2022-11-14T03:17:31;6.40;99.90
54260;DHT22;40172;53.022;7.012;2022-11-14T03:19:56;6.40;99.90
54260;DHT22;40172;53.022;7.012;2022-11-14T03:22:22;6.40;99.90
54260;DHT22;40172;53.022;7.012;2022-11-14T03:24:48;6.40;99.90
54260;DHT22;40172;53.022;7.012;2022-11-14T03:27:13;6.40;99.90
54260;DHT22;40172;53.022;7.012;2022-11-14T03:29:39;6.30;99.90
54260;DHT22;40172;53.022;7.012;2022-11-14T03:32:04;6.40;99.90
54260;DHT22;40172;53.022;7.012;2022-11-14T03:34:30;6.40;99.90
54260;DHT22;40172;53.022;7.012;2022-11-14T03:36:55;6.40;99.90
54260;DHT22;40172;53.022;7.012;2022-11-14T03:39:21;6.40;99.90
54260;DHT22;40172;53.022;7.012;2022-11-14T03:41:47;6.50;99.90
54260;DHT22;40172;53.022;7.012;2022-11-14T03:44:12;6.50;99.90
54260;DHT22;40172;53.022;7.012;2022-11-14T03:46:38;6.60;99.90
54260;DHT22;40172;53.022;7.012;2022-11-14T03:49:03;6.60;99.90
54260;DHT22;40172;53.022;7.012;2022-11-14T03:51:29;6.90;99.90
54260;DHT22;40172;53.022;7.012;2022-11-14T03:53:54;6.40;99.90
54260;DHT22;40172;53.022;7.012;2022-11-14T03:56:20;6.50;99.90
54260;DHT22;40172;53.022;7.012;2022-11-14T03:58:45;6.60;99.90
54260;DHT22;40172;53.022;7.012;2022-11-14T04:01:11;6.60;99.90
54260;DHT22;40172;53.022;7.012;2022-11-14T04:03:36;6.50;99.90
54260;DHT22;40172;53.022;7.012;2022-11-14T04:06:02;6.60;99.90
54260;DHT22;40172;53.022;7.012;2022-11-14T04:08:28;6.50;99.90
54260;DHT22;40172;53.022;7.012;2022-11-14T04:10:53;6.50;99.90
54260;DHT22;40172;53.022;7.012;2022-11-14T04:13:19;6.50;99.90
54260;DHT22;40172;53.022;7.012;2022-11-14T04:15:44;6.40;99.90
54260;DHT22;40172;53.022;7.012;2022-11-14T04:18:10;6.50;99.90
54260;DHT22;40172;53.022;7.012;2022-11-14T04:20:36;6.50;99.90
54260;DHT22;40172;53.022;7.012;2022-11-14T04:23:01;6.50;99.90
54260;DHT22;40172;53.022;7.012;2022-11-14T04:25:27;6.40;99.90
54260;DHT22;40172;53.022;7.012;2022-11-14T04:27:52;6.40;99.90
54260;DHT22;40172;53.022;7.012;2022-11-14T04:30:18;6.50;99.90
54260;DHT22;40172;53.022;7.012;2022-11-14T04:32:44;6.40;99.90
54260;DHT22;40172;53.022;7.012;2022-11-14T04:35:10;6.40;99.90
54260;DHT22;40172;53.022;7.012;2022-11-14T04:37:36;6.50;99.90
54260;DHT22;40172;53.022;7.012;2022-11-14T04:40:04;6.40;99.90
54260;DHT22;40172;53.022;7.012;2022-11-14T04:42:30;6.40;99.90
54260;DHT22;40172;53.022;7.012;2022-11-14T04:44:55;6.40;99.90
54260;DHT22;40172;53.022;7.012;2022-11-14T04:47:21;6.30;99.90
54260;DHT22;40172;53.022;7.012;2022-11-14T04:49:46;6.30;99.90
54260;DHT22;40172;53.022;7.012;2022-11-14T04:52:12;6.30;99.90
54260;DHT22;40172;53.022;7.012;2022-11-14T04:54:38;6.30;99.90
54260;DHT22;40172;53.022;7.012;2022-11-14T04:57:03;6.30;99.90
54260;DHT22;40172;53.022;7.012;2022-11-14T04:59:29;6.20;99.90
54260;DHT22;40172;53.022;7.012;2022-11-14T05:01:54;6.30;99.90
54260;DHT22;40172;53.022;7.012;2022-11-14T05:04:20;6.30;99.90
54260;DHT22;40172;53.022;7.012;2022-11-14T05:06:45;6.30;99.90
54260;DHT22;40172;53.022;7.012;2022-11-14T05:09:11;6.20;99.90
54260;DHT22;40172;53.022;7.012;2022-11-14T05:11:37;6.30;99.90
54260;DHT22;40172;53.022;7.012;2022-11-14T05:14:02;6.20;99.90
54260;DHT22;40172;53.022;7.012;2022-11-14T05:16:28;6.30;99.90
54260;DHT22;40172;53.022;7.012;2022-11-14T05:18:53;6.20;99.90
54260;DHT22;40172;53.022;7.012;2022-11-14T05:21:19;6.20;99.90
54260;DHT22;40172;53.022;7.012;2022-11-14T05:23:45;6.30;99.90
54260;DHT22;40172;53.022;7.012;2022-11-14T05:26:13;6.30;99.90
54260;DHT22;40172;53.022;7.012;2022-11-14T05:28:39;6.30;99.90
54260;DHT22;40172;53.022;7.012;2022-11-14T05:31:07;6.20;99.90
54260;DHT22;40172;53.022;7.012;2022-11-14T05:33:34;6.20;99.90
54260;DHT22;40172;53.022;7.012;2022-11-14T05:36:08;6.20;99.90
54260;DHT22;40172;53.022;7.012;2022-11-14T05:38:34;6.20;99.90
54260;DHT22;40172;53.022;7.012;2022-11-14T05:41:11;6.20;99.90
54260;DHT22;40172;53.022;7.012;2022-11-14T05:43:37;6.20;99.90
54260;DHT22;40172;53.022;7.012;2022-11-14T05:46:05;6.10;99.90
54260;DHT22;40172;53.022;7.012;2022-11-14T05:48:31;6.10;99.90
54260;DHT22;40172;53.022;7.012;2022-11-14T05:50:59;6.10;99.90
54260;DHT22;40172;53.022;7.012;2022-11-14T05:53:25;6.10;99.90
54260;DHT22;40172;53.022;7.012;2022-11-14T05:55:51;6.00;99.90
54260;DHT22;40172;53.022;7.012;2022-11-14T05:58:17;5.90;99.90
54260;DHT22;40172;53.022;7.012;2022-11-14T06:00:42;5.90;99.90
54260;DHT22;40172;53.022;7.012;2022-11-14T06:03:08;5.90;99.90
54260;DHT22;40172;53.022;7.012;2022-11-14T06:05:34;5.90;99.90
54260;DHT22;40172;53.022;7.012;2022-11-14T06:08:00;5.80;99.90
54260;DHT22;40172;53.022;7.012;2022-11-14T06:10:26;5.90;99.90
54260;DHT22;40172;53.022;7.012;2022-11-14T06:12:52;5.90;99.90
54260;DHT22;40172;53.022;7.012;2022-11-14T06:15:18;5.80;99.90
54260;DHT22;40172;53.022;7.012;2022-11-14T06:17:44;5.80;99.90
54260;DHT22;40172;53.022;7.012;2022-11-14T06:20:09;5.80;99.90
54260;DHT22;40172;53.022;7.012;2022-11-14T06:22:40;5.70;99.90
54260;DHT22;40172;53.022;7.012;2022-11-14T06:25:06;5.70;99.90
54260;DHT22;40172;53.022;7.012;2022-11-14T06:27:33;5.70;99.90
54260;DHT22;40172;53.022;7.012;2022-11-14T06:29:58;5.70;99.90
54260;DHT22;40172;53.022;7.012;2022-11-14T06:32:24;5.80;99.90
54260;DHT22;40172;53.022;7.012;2022-11-14T06:34:49;5.70;99.90
54260;DHT22;40172;53.022;7.012;2022-11-14T06:37:15;5.80;99.90
54260;DHT22;40172;53.022;7.012;2022-11-14T06:39:41;5.70;99.90
54260;DHT22;40172;53.022;7.012;2022-11-14T06:42:06;5.70;99.90
54260;DHT22;40172;53.022;7.012;2022-11-14T06:44:32;5.70;99.90
54260;DHT22;40172;53.022;7.012;2022-11-14T06:46:57;5.80;99.90
54260;DHT22;40172;53.022;7.012;2022-11-14T06:49:23;5.70;99.90
54260;DHT22;40172;53.022;7.012;2022-11-14T06:51:52;5.70;99.90
54260;DHT22;40172;53.022;7.012;2022-11-14T06:54:18;5.70;99.90
54260;DHT22;40172;53.022;7.012;2022-11-14T06:56:44;5.70;99.90
54260;DHT22;40172;53.022;7.012;2022-11-14T06:59:10;5.70;99.90
54260;DHT22;40172;53.022;7.012;2022-11-14T07:01:35;5.70;99.90
54260;DHT22;40172;53.022;7.012;2022-11-14T07:04:01;5.60;99.90
54260;DHT22;40172;53.022;7.012;2022-11-14T07:06:28;5.60;99.90
54260;DHT22;40172;53.022;7.012;2022-11-14T07:08:55;5.60;99.90
54260;DHT22;40172;53.022;7.012;2022-11-14T07:11:25;5.70;99.90
54260;DHT22;40172;53.022;7.012;2022-11-14T07:16:24;5.70;99.90
54260;DHT22;40172;53.022;7.012;2022-11-14T07:18:50;5.70;99.90
54260;DHT22;40172;53.022;7.012;2022-11-14T07:21:16;5.70;99.90
54260;DHT22;40172;53.022;7.012;2022-11-14T07:23:41;5.70;99.90
54260;DHT22;40172;53.022;7.012;2022-11-14T07:26:09;5.70;99.90
54260;DHT22;40172;53.022;7.012;2022-11-14T07:28:39;5.60;99.90
54260;DHT22;40172;53.022;7.012;2022-11-14T07:31:06;5.70;99.90
54260;DHT22;40172;53.022;7.012;2022-11-14T07:33:32;5.70;99.90
54260;DHT22;40172;53.022;7.012;2022-11-14T07:35:58;5.60;99.90
54260;DHT22;40172;53.022;7.012;2022-11-14T07:38:24;5.70;99.90
54260;DHT22;40172;53.022;7.012;2022-11-14T07:40:54;5.70;99.90
54260;DHT22;40172;53.022;7.012;2022-11-14T07:43:20;5.70;99.90
54260;DHT22;40172;53.022;7.012;2022-11-14T07:45:46;5.80;99.90
54260;DHT22;40172;53.022;7.012;2022-11-14T07:48:12;5.80;99.90
54260;DHT22;40172;53.022;7.012;2022-11-14T07:50:37;5.90;99.90
54260;DHT22;40172;53.022;7.012;2022-11-14T07:53:03;5.80;99.90
54260;DHT22;40172;53.022;7.012;2022-11-14T07:55:28;5.90;99.90
54260;DHT22;40172;53.022;7.012;2022-11-14T07:57:54;5.90;99.90
54260;DHT22;40172;53.022;7.012;2022-11-14T08:00:23;5.90;99.90
54260;DHT22;40172;53.022;7.012;2022-11-14T08:02:48;5.90;99.90
54260;DHT22;40172;53.022;7.012;2022-11-14T08:05:14;6.00;99.90
54260;DHT22;40172;53.022;7.012;2022-11-14T08:07:39;6.00;99.90
54260;DHT22;40172;53.022;7.012;2022-11-14T08:10:06;6.00;99.90
54260;DHT22;40172;53.022;7.012;2022-11-14T08:12:31;6.10;99.90
54260;DHT22;40172;53.022;7.012;2022-11-14T08:14:57;6.10;99.90
54260;DHT22;40172;53.022;7.012;2022-11-14T08:17:23;6.00;99.90
54260;DHT22;40172;53.022;7.012;2022-11-14T08:19:48;6.10;99.90
54260;DHT22;40172;53.022;7.012;2022-11-14T08:22:14;6.20;99.90
54260;DHT22;40172;53.022;7.012;2022-11-14T08:24:40;6.20;99.90
54260;DHT22;40172;53.022;7.012;2022-11-14T08:27:05;6.20;99.90
54260;DHT22;40172;53.022;7.012;2022-11-14T08:29:31;6.20;99.90
54260;DHT22;40172;53.022;7.012;2022-11-14T08:31:56;6.20;99.90
54260;DHT22;40172;53.022;7.012;2022-11-14T08:34:23;6.30;99.90
54260;DHT22;40172;53.022;7.012;2022-11-14T08:36:49;6.30;99.90
54260;DHT22;40172;53.022;7.012;2022-11-14T08:39:14;6.40;99.90
54260;DHT22;40172;53.022;7.012;2022-11-14T08:41:40;6.40;99.90
54260;DHT22;40172;53.022;7.012;2022-11-14T08:44:05;6.40;99.90
54260;DHT22;40172;53.022;7.012;2022-11-14T08:46:31;6.40;99.90
54260;DHT22;40172;53.022;7.012;2022-11-14T08:48:56;6.40;99.90
54260;DHT22;40172;53.022;7.012;2022-11-14T08:51:22;6.50;99.90
54260;DHT22;40172;53.022;7.012;2022-11-14T08:53:47;6.50;99.90
54260;DHT22;40172;53.022;7.012;2022-11-14T08:56:13;6.60;99.90
54260;DHT22;40172;53.022;7.012;2022-11-14T08:58:39;6.60;99.90
54260;DHT22;40172;53.022;7.012;2022-11-14T09:01:06;6.70;99.90
54260;DHT22;40172;53.022;7.012;2022-11-14T09:03:32;6.70;99.90
54260;DHT22;40172;53.022;7.012;2022-11-14T09:05:58;6.80;99.90
54260;DHT22;40172;53.022;7.012;2022-11-14T09:08:24;6.80;99.90
54260;DHT22;40172;53.022;7.012;2022-11-14T09:10:50;6.80;99.90
54260;DHT22;40172;53.022;7.012;2022-11-14T09:13:16;6.70;99.90
54260;DHT22;40172;53.022;7.012;2022-11-14T09:15:42;6.60;99.90
54260;DHT22;40172;53.022;7.012;2022-11-14T09:18:08;6.60;99.90
54260;DHT22;40172;53.022;7.012;2022-11-14T09:20:34;6.60;99.90
54260;DHT22;40172;53.022;7.012;2022-11-14T09:23:01;6.60;99.90
54260;DHT22;40172;53.022;7.012;2022-11-14T09:25:27;6.70;99.90
54260;DHT22;40172;53.022;7.012;2022-11-14T09:27:53;6.70;99.90
54260;DHT22;40172;53.022;7.012;2022-11-14T09:30:19;6.90;99.90
54260;DHT22;40172;53.022;7.012;2022-11-14T09:32:46;6.90;99.90
54260;DHT22;40172;53.022;7.012;2022-11-14T09:35:11;7.00;99.90
54260;DHT22;40172;53.022;7.012;2022-11-14T09:37:37;6.90;99.90
54260;DHT22;40172;53.022;7.012;2022-11-14T09:40:03;6.90;99.90
54260;DHT22;40172;53.022;7.012;2022-11-14T09:45:10;7.00;99.90
54260;DHT22;40172;53.022;7.012;2022-11-14T09:47:44;7.10;99.90
54260;DHT22;40172;53.022;7.012;2022-11-14T09:50:23;7.10;99.90
54260;DHT22;40172;53.022;7.012;2022-11-14T09:53:15;7.10;99.90
54260;DHT22;40172;53.022;7.012;2022-11-14T09:55:42;7.20;99.90
54260;DHT22;40172;53.022;7.012;2022-11-14T09:58:14;7.20;99.90
54260;DHT22;40172;53.022;7.012;2022-11-14T10:13:56;7.40;99.90
54260;DHT22;40172;53.022;7.012;2022-11-14T10:19:32;7.40;99.90
54260;DHT22;40172;53.022;7.012;2022-11-14T10:22:18;7.40;99.90
54260;DHT22;40172;53.022;7.012;2022-11-14T10:28:02;7.40;99.90
54260;DHT22;40172;53.022;7.012;2022-11-14T10:30:34;7.40;99.90
54260;DHT22;40172;53.022;7.012;2022-11-14T10:33:07;7.40;99.90
54260;DHT22;40172;53.022;7.012;2022-11-14T10:35:39;7.50;99.90
54260;DHT22;40172;53.022;7.012;2022-11-14T10:38:17;8.70;99.90
54260;DHT22;40172;53.022;7.012;2022-11-14T10:40:59;7.60;99.90
54260;DHT22;40172;53.022;7.012;2022-11-14T10:43:30;7.60;99.90
54260;DHT22;40172;53.022;7.012;2022-11-14T10:46:06;7.60;99.90
54260;DHT22;40172;53.022;7.012;2022-11-14T10:48:40;7.70;99.90
54260;DHT22;40172;53.022;7.012;2022-11-14T10:51:10;7.80;99.90
54260;DHT22;40172;53.022;7.012;2022-11-14T10:56:32;7.90;99.90
54260;DHT22;40172;53.022;7.012;2022-11-14T10:58:58;7.80;99.90
54260;DHT22;40172;53.022;7.012;2022-11-14T11:01:38;7.80;99.90
54260;DHT22;40172;53.022;7.012;2022-11-14T11:06:42;7.80;99.90
54260;DHT22;40172;53.022;7.012;2022-11-14T11:09:13;7.80;99.90
54260;DHT22;40172;53.022;7.012;2022-11-14T11:11:59;7.80;99.90
54260;DHT22;40172;53.022;7.012;2022-11-14T11:14:28;7.80;99.90
54260;DHT22;40172;53.022;7.012;2022-11-14T11:17:26;7.90;99.90
54260;DHT22;40172;53.022;7.012;2022-11-14T11:19:52;7.90;99.90
54260;DHT22;40172;53.022;7.012;2022-11-14T11:22:37;8.00;99.90
54260;DHT22;40172;53.022;7.012;2022-11-14T11:25:32;8.10;99.90
54260;DHT22;40172;53.022;7.012;2022-11-14T11:28:08;8.10;99.90
54260;DHT22;40172;53.022;7.012;2022-11-14T11:30:35;8.20;99.90
54260;DHT22;40172;53.022;7.012;2022-11-14T11:35:46;8.30;99.90
54260;DHT22;40172;53.022;7.012;2022-11-14T11:38:13;8.30;99.90
54260;DHT22;40172;53.022;7.012;2022-11-14T11:40:43;8.40;99.90
54260;DHT22;40172;53.022;7.012;2022-11-14T11:43:35;8.50;99.90
54260;DHT22;40172;53.022;7.012;2022-11-14T11:46:07;8.40;99.90
54260;DHT22;40172;53.022;7.012;2022-11-14T11:48:37;8.50;99.90
54260;DHT22;40172;53.022;7.012;2022-11-14T11:51:04;8.50;99.90
54260;DHT22;40172;53.022;7.012;2022-11-14T11:53:33;8.60;99.90
54260;DHT22;40172;53.022;7.012;2022-11-14T11:56:08;8.60;99.90
54260;DHT22;40172;53.022;7.012;2022-11-14T11:58:50;8.70;99.90
54260;DHT22;40172;53.022;7.012;2022-11-14T12:01:16;8.80;99.90
54260;DHT22;40172;53.022;7.012;2022-11-14T12:03:48;8.80;99.90
54260;DHT22;40172;53.022;7.012;2022-11-14T12:06:23;8.80;99.90
54260;DHT22;40172;53.022;7.012;2022-11-14T12:11:53;8.90;99.90
54260;DHT22;40172;53.022;7.012;2022-11-14T12:20:29;9.00;99.90
54260;DHT22;40172;53.022;7.012;2022-11-14T12:25:31;8.90;99.90
54260;DHT22;40172;53.022;7.012;2022-11-14T12:28:11;9.10;99.90
54260;DHT22;40172;53.022;7.012;2022-11-14T12:30:41;9.10;99.90
54260;DHT22;40172;53.022;7.012;2022-11-14T12:35:52;9.20;99.90
54260;DHT22;40172;53.022;7.012;2022-11-14T12:38:20;9.30;99.90
54260;DHT22;40172;53.022;7.012;2022-11-14T12:40:55;9.30;99.90
54260;DHT22;40172;53.022;7.012;2022-11-14T12:43:39;9.40;99.90
54260;DHT22;40172;53.022;7.012;2022-11-14T12:46:08;9.40;99.90
54260;DHT22;40172;53.022;7.012;2022-11-14T12:48:41;9.40;99.90
54260;DHT22;40172;53.022;7.012;2022-11-14T12:53:56;9.60;99.90
54260;DHT22;40172;53.022;7.012;2022-11-14T12:59:28;9.60;99.90
54260;DHT22;40172;53.022;7.012;2022-11-14T13:02:19;9.60;99.90
54260;DHT22;40172;53.022;7.012;2022-11-14T13:05:10;9.50;99.90
54260;DHT22;40172;53.022;7.012;2022-11-14T13:08:01;9.70;99.90
54260;DHT22;40172;53.022;7.012;2022-11-14T13:10:40;9.80;99.90
54260;DHT22;40172;53.022;7.012;2022-11-14T13:13:11;9.80;99.90
54260;DHT22;40172;53.022;7.012;2022-11-14T13:16:00;9.80;99.90
54260;DHT22;40172;53.022;7.012;2022-11-14T13:27:32;9.90;99.90
54260;DHT22;40172;53.022;7.012;2022-11-14T13:29:58;9.90;99.90
54260;DHT22;40172;53.022;7.012;2022-11-14T13:35:17;9.90;99.90
54260;DHT22;40172;53.022;7.012;2022-11-14T13:51:40;9.80;99.90
54260;DHT22;40172;53.022;7.012;2022-11-14T13:54:11;9.80;99.90
54260;DHT22;40172;53.022;7.012;2022-11-14T14:02:19;9.70;99.90
54260;DHT22;40172;53.022;7.012;2022-11-14T14:05:17;9.80;99.90
54260;DHT22;40172;53.022;7.012;2022-11-14T14:08:28;9.80;99.90
54260;DHT22;40172;53.022;7.012;2022-11-14T14:19:06;9.70;99.90
54260;DHT22;40172;53.022;7.012;2022-11-14T14:21:35;9.70;99.90
54260;DHT22;40172;53.022;7.012;2022-11-14T14:27:15;9.70;99.90
54260;DHT22;40172;53.022;7.012;2022-11-14T14:29:54;9.60;99.90
54260;DHT22;40172;53.022;7.012;2022-11-14T14:32:23;9.60;99.90
54260;DHT22;40172;53.022;7.012;2022-11-14T14:34:48;9.60;99.90
54260;DHT22;40172;53.022;7.012;2022-11-14T14:37:23;9.50;99.90
54260;DHT22;40172;53.022;7.012;2022-11-14T14:40:04;9.50;99.90
54260;DHT22;40172;53.022;7.012;2022-11-14T14:42:37;9.50;99.90
54260;DHT22;40172;53.022;7.012;2022-11-14T14:45:04;9.40;99.90
54260;DHT22;40172;53.022;7.012;2022-11-14T14:47:35;9.40;99.90
54260;DHT22;40172;53.022;7.012;2022-11-14T14:50:12;9.30;99.90
54260;DHT22;40172;53.022;7.012;2022-11-14T14:52:39;9.30;99.90
54260;DHT22;40172;53.022;7.012;2022-11-14T14:55:15;9.20;99.90
54260;DHT22;40172;53.022;7.012;2022-11-14T14:57:42;9.10;99.90
54260;DHT22;40172;53.022;7.012;2022-11-14T15:02:42;9.00;99.90
54260;DHT22;40172;53.022;7.012;2022-11-14T15:05:08;8.90;99.90
54260;DHT22;40172;53.022;7.012;2022-11-14T15:07:34;8.90;99.90
54260;DHT22;40172;53.022;7.012;2022-11-14T15:10:03;8.80;99.90
54260;DHT22;40172;53.022;7.012;2022-11-14T15:12:30;8.70;99.90
54260;DHT22;40172;53.022;7.012;2022-11-14T15:14:58;8.50;99.90
54260;DHT22;40172;53.022;7.012;2022-11-14T15:17:25;8.40;99.90
54260;DHT22;40172;53.022;7.012;2022-11-14T15:19:52;8.30;99.90
54260;DHT22;40172;53.022;7.012;2022-11-14T15:24:43;8.10;99.90
54260;DHT22;40172;53.022;7.012;2022-11-14T15:27:27;7.90;99.90
54260;DHT22;40172;53.022;7.012;2022-11-14T15:29:57;7.80;99.90
54260;DHT22;40172;53.022;7.012;2022-11-14T15:32:24;7.70;99.90
54260;DHT22;40172;53.022;7.012;2022-11-14T15:40:36;7.30;99.90
54260;DHT22;40172;53.022;7.012;2022-11-14T15:43:44;7.20;99.90
54260;DHT22;40172;53.022;7.012;2022-11-14T15:48:58;7.00;99.90
54260;DHT22;40172;53.022;7.012;2022-11-14T15:51:40;6.90;99.90
54260;DHT22;40172;53.022;7.012;2022-11-14T15:56:45;6.70;99.90
54260;DHT22;40172;53.022;7.012;2022-11-14T15:59:10;6.60;99.90
54260;DHT22;40172;53.022;7.012;2022-11-14T16:01:36;6.60;99.90
54260;DHT22;40172;53.022;7.012;2022-11-14T16:04:02;6.60;99.90
54260;DHT22;40172;53.022;7.012;2022-11-14T16:06:29;6.70;99.90
54260;DHT22;40172;53.022;7.012;2022-11-14T16:08:56;6.60;99.90
54260;DHT22;40172;53.022;7.012;2022-11-14T16:11:22;6.70;99.90
54260;DHT22;40172;53.022;7.012;2022-11-14T16:13:47;6.70;99.90
54260;DHT22;40172;53.022;7.012;2022-11-14T16:16:13;6.80;99.90
54260;DHT22;40172;53.022;7.012;2022-11-14T16:18:38;6.90;99.90
54260;DHT22;40172;53.022;7.012;2022-11-14T16:21:04;6.90;99.90
54260;DHT22;40172;53.022;7.012;2022-11-14T16:23:29;7.00;99.90
54260;DHT22;40172;53.022;7.012;2022-11-14T16:25:55;7.00;99.90
54260;DHT22;40172;53.022;7.012;2022-11-14T16:28:21;7.10;99.90
54260;DHT22;40172;53.022;7.012;2022-11-14T16:30:46;7.10;99.90
54260;DHT22;40172;53.022;7.012;2022-11-14T16:33:12;7.00;99.90
54260;DHT22;40172;53.022;7.012;2022-11-14T16:35:37;7.20;99.90
54260;DHT22;40172;53.022;7.012;2022-11-14T16:38:03;7.20;99.90
54260;DHT22;40172;53.022;7.012;2022-11-14T16:40:28;7.20;99.90
54260;DHT22;40172;53.022;7.012;2022-11-14T16:42:55;7.20;99.90
54260;DHT22;40172;53.022;7.012;2022-11-14T16:45:22;7.20;99.90
54260;DHT22;40172;53.022;7.012;2022-11-14T16:47:48;7.20;99.90
54260;DHT22;40172;53.022;7.012;2022-11-14T16:50:14;6.80;99.90
54260;DHT22;40172;53.022;7.012;2022-11-14T16:52:40;7.10;99.90
54260;DHT22;40172;53.022;7.012;2022-11-14T16:55:08;8.00;99.90
54260;DHT22;40172;53.022;7.012;2022-11-14T16:57:34;6.90;99.90
54260;DHT22;40172;53.022;7.012;2022-11-14T17:00:04;6.80;99.90
54260;DHT22;40172;53.022;7.012;2022-11-14T17:02:30;6.70;99.90
54260;DHT22;40172;53.022;7.012;2022-11-14T17:04:55;6.70;99.90
54260;DHT22;40172;53.022;7.012;2022-11-14T17:07:21;6.60;99.90
54260;DHT22;40172;53.022;7.012;2022-11-14T17:09:50;6.50;99.90
54260;DHT22;40172;53.022;7.012;2022-11-14T17:12:15;6.40;99.90
54260;DHT22;40172;53.022;7.012;2022-11-14T17:14:41;6.30;99.90
54260;DHT22;40172;53.022;7.012;2022-11-14T17:17:06;6.30;99.90
54260;DHT22;40172;53.022;7.012;2022-11-14T17:19:32;6.20;99.90
54260;DHT22;40172;53.022;7.012;2022-11-14T17:21:58;6.10;99.90
54260;DHT22;40172;53.022;7.012;2022-11-14T17:24:23;6.00;99.90
54260;DHT22;40172;53.022;7.012;2022-11-14T17:26:49;5.90;99.90
54260;DHT22;40172;53.022;7.012;2022-11-14T17:29:14;5.80;99.90
54260;DHT22;40172;53.022;7.012;2022-11-14T17:31:40;5.80;99.90
54260;DHT22;40172;53.022;7.012;2022-11-14T17:34:08;5.70;99.90
54260;DHT22;40172;53.022;7.012;2022-11-14T17:36:34;5.70;99.90
54260;DHT22;40172;53.022;7.012;2022-11-14T17:38:59;5.60;99.90
54260;DHT22;40172;53.022;7.012;2022-11-14T17:41:25;5.60;99.90
54260;DHT22;40172;53.022;7.012;2022-11-14T17:43:52;5.60;99.90
54260;DHT22;40172;53.022;7.012;2022-11-14T17:46:23;5.50;99.90
54260;DHT22;40172;53.022;7.012;2022-11-14T17:48:48;5.50;99.90